createdAt,value
2019-02-22T00:01:02.715Z,102843.00
2019-02-22T00:02:39.014Z,102847.00
2019-02-22T00:04:14.163Z,102841.00
2019-02-22T00:05:49.297Z,102842.00
2019-02-22T00:07:24.450Z,102857.00
2019-02-22T00:08:59.885Z,102854.00
2019-02-22T00:10:35.014Z,102857.00
2019-02-22T00:12:10.142Z,102857.00
2019-02-22T00:13:45.806Z,102853.00
2019-02-22T00:15:20.939Z,102848.00
2019-02-22T00:16:56.352Z,102845.00
2019-02-22T00:18:31.529Z,102860.00
2019-02-22T00:20:07.950Z,102857.00
2019-02-22T00:21:43.174Z,102863.00
2019-02-22T00:23:18.309Z,102859.00
2019-02-22T00:24:53.447Z,102863.00
2019-02-22T00:26:29.531Z,102866.00
2019-02-22T00:28:04.662Z,102860.00
2019-02-22T00:29:39.791Z,102865.00
2019-02-22T00:31:16.045Z,102863.00
2019-02-22T00:32:51.182Z,102857.00
2019-02-22T00:34:26.373Z,102862.00
2019-02-22T00:36:01.596Z,102856.00
2019-02-22T00:37:36.770Z,102865.00
2019-02-22T00:39:11.876Z,102869.00
2019-02-22T00:40:47.007Z,102863.00
2019-02-22T00:42:22.131Z,102861.00
2019-02-22T00:43:57.262Z,102869.00
2019-02-22T00:45:32.393Z,102869.00
2019-02-22T00:47:07.523Z,102873.00
2019-02-22T00:48:42.640Z,102872.00
2019-02-22T00:50:17.948Z,102858.00
2019-02-22T00:51:53.411Z,102868.00
2019-02-22T00:53:28.562Z,102876.00
2019-02-22T00:55:03.858Z,102864.00
2019-02-22T00:56:38.982Z,102875.00
2019-02-22T00:58:14.117Z,102877.00
2019-02-22T00:59:49.262Z,102871.00
2019-02-22T01:01:24.392Z,102869.00
2019-02-22T01:02:59.523Z,102881.00
2019-02-22T01:04:34.680Z,102885.00
2019-02-22T01:06:09.814Z,102885.00
2019-02-22T01:07:44.944Z,102887.00
2019-02-22T01:09:20.076Z,102878.00
2019-02-22T01:10:55.207Z,102886.00
2019-02-22T01:12:30.657Z,102881.00
2019-02-22T01:14:06.052Z,102891.00
2019-02-22T01:15:41.189Z,102889.00
2019-02-22T01:17:16.317Z,102885.00
2019-02-22T01:18:51.709Z,102885.00
2019-02-22T01:20:27.132Z,102900.00
2019-02-22T01:22:02.261Z,102885.00
2019-02-22T01:23:37.394Z,102880.00
2019-02-22T01:25:12.530Z,102885.00
2019-02-22T01:26:48.635Z,102885.00
2019-02-22T01:28:24.028Z,102895.00
2019-02-22T01:29:59.167Z,102885.00
2019-02-22T01:31:34.582Z,102882.00
2019-02-22T01:33:09.978Z,102886.00
2019-02-22T01:34:45.120Z,102897.00
2019-02-22T01:36:20.280Z,102896.00
2019-02-22T01:37:56.379Z,102898.00
2019-02-22T01:39:31.525Z,102896.00
2019-02-22T01:41:06.646Z,102902.00
2019-02-22T01:42:41.765Z,102890.00
2019-02-22T01:44:22.089Z,102900.00
2019-02-22T01:45:57.210Z,102890.00
2019-02-22T01:47:32.905Z,102906.00
2019-02-22T01:49:08.355Z,102904.00
2019-02-22T01:50:43.502Z,102902.00
2019-02-22T01:52:18.634Z,102896.00
2019-02-22T01:53:54.128Z,102897.00
2019-02-22T01:55:29.284Z,102901.00
2019-02-22T01:57:04.414Z,102899.00
2019-02-22T01:58:48.184Z,102891.00
2019-02-22T02:00:16.437Z,102902.00
2019-02-22T02:01:51.565Z,102900.00
2019-02-22T02:03:26.700Z,102910.00
2019-02-22T02:05:01.836Z,102916.00
2019-02-22T02:06:36.962Z,102920.00
2019-02-22T02:08:12.093Z,102915.00
2019-02-22T02:09:47.226Z,102916.00
2019-02-22T02:11:22.634Z,102918.00
2019-02-22T02:12:58.016Z,102924.00
2019-02-22T02:14:33.206Z,102924.00
2019-02-22T02:16:08.341Z,102919.00
2019-02-22T02:17:43.468Z,102926.00
2019-02-22T02:19:19.255Z,102924.00
2019-02-22T02:20:54.451Z,102927.00
2019-02-22T02:22:29.559Z,102926.00
2019-02-22T02:24:04.689Z,102932.00
2019-02-22T02:25:39.840Z,102924.00
2019-02-22T02:27:14.971Z,102929.00
2019-02-22T02:28:51.654Z,102928.00
2019-02-22T02:30:26.922Z,102929.00
2019-02-22T02:32:02.052Z,102926.00
2019-02-22T02:33:37.173Z,102931.00
2019-02-22T02:35:12.311Z,102935.00
2019-02-22T02:36:47.447Z,102944.00
2019-02-22T02:38:22.574Z,102935.00
2019-02-22T02:39:57.704Z,102947.00
2019-02-22T02:41:32.832Z,102944.00
2019-02-22T02:43:07.960Z,102946.00
2019-02-22T02:44:43.089Z,102948.00
2019-02-22T02:46:19.622Z,102952.00
2019-02-22T02:47:54.766Z,102952.00
2019-02-22T02:49:29.895Z,102960.00
2019-02-22T02:51:05.045Z,102957.00
2019-02-22T02:52:40.490Z,102955.00
2019-02-22T02:54:15.619Z,102961.00
2019-02-22T02:55:50.761Z,102966.00
2019-02-22T02:57:25.885Z,102973.00
2019-02-22T02:59:01.015Z,102963.00
2019-02-22T03:00:36.173Z,102961.00
2019-02-22T03:02:12.958Z,102966.00
2019-02-22T03:03:48.091Z,102969.00
2019-02-22T03:05:26.118Z,102966.00
2019-02-22T03:07:03.208Z,102966.00
2019-02-22T03:08:40.916Z,102969.00
2019-02-22T03:10:16.058Z,102975.00
2019-02-22T03:11:51.230Z,102975.00
2019-02-22T03:13:26.370Z,102977.00
2019-02-22T03:15:01.543Z,102975.00
2019-02-22T03:16:36.726Z,102988.00
2019-02-22T03:18:11.899Z,102975.00
2019-02-22T03:19:47.008Z,102998.00
2019-02-22T03:21:22.140Z,102990.00
2019-02-22T03:22:57.267Z,102993.00
2019-02-22T03:24:33.374Z,102995.00
2019-02-22T03:26:08.502Z,103003.00
2019-02-22T03:27:43.622Z,103010.00
2019-02-22T03:29:19.888Z,103002.00
2019-02-22T03:30:55.049Z,103014.00
2019-02-22T03:32:30.182Z,103027.00
2019-02-22T03:34:05.326Z,103023.00
2019-02-22T03:35:42.078Z,103020.00
2019-02-22T03:37:17.217Z,103020.00
2019-02-22T03:38:52.414Z,103022.00
2019-02-22T03:40:27.574Z,103028.00
2019-02-22T03:42:02.702Z,103025.00
2019-02-22T03:43:37.833Z,103029.00
2019-02-22T03:45:12.979Z,103024.00
2019-02-22T03:46:48.124Z,103029.00
2019-02-22T03:48:23.249Z,103029.00
2019-02-22T03:49:59.368Z,103035.00
2019-02-22T03:51:34.511Z,103037.00
2019-02-22T03:53:20.348Z,103037.00
2019-02-22T03:54:55.463Z,103040.00
2019-02-22T03:56:30.605Z,103046.00
2019-02-22T03:58:05.727Z,103040.00
2019-02-22T03:59:40.879Z,103056.00
2019-02-22T04:01:16.034Z,103044.00
2019-02-22T04:02:51.150Z,103051.00
2019-02-22T04:04:26.328Z,103055.00
2019-02-22T04:06:01.458Z,103065.00
2019-02-22T04:07:36.623Z,103064.00
2019-02-22T04:09:12.028Z,103067.00
2019-02-22T04:10:47.158Z,103072.00
2019-02-22T04:12:22.293Z,103069.00
2019-02-22T04:13:57.430Z,103073.00
2019-02-22T04:15:32.571Z,103072.00
2019-02-22T04:17:07.681Z,103070.00
2019-02-22T04:18:42.811Z,103077.00
2019-02-22T04:20:17.934Z,103078.00
2019-02-22T04:21:53.083Z,103083.00
2019-02-22T04:23:28.205Z,103083.00
2019-02-22T04:25:03.333Z,103090.00
2019-02-22T04:26:38.527Z,103093.00
2019-02-22T04:28:13.683Z,103090.00
2019-02-22T04:29:48.809Z,103093.00
2019-02-22T04:31:24.010Z,103097.00
2019-02-22T04:32:59.134Z,103105.00
2019-02-22T04:34:35.226Z,103105.00
2019-02-22T04:36:10.348Z,103098.00
2019-02-22T04:37:45.472Z,103101.00
2019-02-22T04:39:20.886Z,103111.00
2019-02-22T04:40:56.035Z,103108.00
2019-02-22T04:42:31.176Z,103103.00
2019-02-22T04:44:06.287Z,103107.00
2019-02-22T04:45:41.427Z,103109.00
2019-02-22T04:47:16.647Z,103112.00
2019-02-22T04:48:51.772Z,103106.00
2019-02-22T04:50:26.893Z,103120.00
2019-02-22T04:52:04.905Z,103121.00
2019-02-22T04:53:40.095Z,103119.00
2019-02-22T04:55:15.224Z,103121.00
2019-02-22T04:56:52.754Z,103124.00
2019-02-22T04:58:27.878Z,103131.00
2019-02-22T05:00:03.104Z,103123.00
2019-02-22T05:01:38.594Z,103122.00
2019-02-22T05:03:13.710Z,103129.00
2019-02-22T05:04:49.103Z,103132.00
2019-02-22T05:06:24.244Z,103137.00
2019-02-22T05:07:59.369Z,103127.00
2019-02-22T05:09:34.804Z,103140.00
2019-02-22T05:11:10.038Z,103136.00
2019-02-22T05:12:45.140Z,103143.00
2019-02-22T05:14:21.385Z,103138.00
2019-02-22T05:15:56.560Z,103148.00
2019-02-22T05:17:31.707Z,103146.00
2019-02-22T05:19:06.824Z,103152.00
2019-02-22T05:20:41.954Z,103164.00
2019-02-22T05:22:17.083Z,103161.00
2019-02-22T05:23:52.214Z,103166.00
2019-02-22T05:25:27.441Z,103162.00
2019-02-22T05:27:02.587Z,103167.00
2019-02-22T05:28:37.730Z,103169.00
2019-02-22T05:30:13.810Z,103170.00
2019-02-22T05:31:48.947Z,103173.00
2019-02-22T05:33:24.087Z,103175.00
2019-02-22T05:34:59.211Z,103175.00
2019-02-22T05:36:34.368Z,103189.00
2019-02-22T05:38:09.495Z,103188.00
2019-02-22T05:39:44.628Z,103203.00
2019-02-22T05:41:20.047Z,103201.00
2019-02-22T05:42:55.429Z,103203.00
2019-02-22T05:44:30.548Z,103213.00
2019-02-22T05:46:05.684Z,103207.00
2019-02-22T05:47:40.820Z,103211.00
2019-02-22T05:49:15.944Z,103217.00
2019-02-22T05:50:51.631Z,103228.00
2019-02-22T05:52:26.761Z,103222.00
2019-02-22T05:54:01.872Z,103226.00
2019-02-22T05:55:36.997Z,103230.00
2019-02-22T05:57:14.260Z,103232.00
2019-02-22T05:58:48.979Z,103232.00
2019-02-22T06:00:24.415Z,103241.00
2019-02-22T06:01:59.564Z,103241.00
2019-02-22T06:03:34.682Z,103257.00
2019-02-22T06:05:09.810Z,103260.00
2019-02-22T06:06:44.953Z,103261.00
2019-02-22T06:08:20.073Z,103261.00
2019-02-22T06:09:55.214Z,103261.00
2019-02-22T06:11:30.339Z,103275.00
2019-02-22T06:13:05.484Z,103267.00
2019-02-22T06:14:40.591Z,103281.00
2019-02-22T06:16:15.701Z,103279.00
2019-02-22T06:17:51.976Z,103285.00
2019-02-22T06:19:27.105Z,103273.00
2019-02-22T06:21:02.244Z,103290.00
2019-02-22T06:22:37.414Z,103294.00
2019-02-22T06:24:12.810Z,103296.00
2019-02-22T06:25:47.922Z,103299.00
2019-02-22T06:27:24.674Z,103293.00
2019-02-22T06:28:59.801Z,103301.00
2019-02-22T06:30:35.223Z,103307.00
2019-02-22T06:32:10.694Z,103304.00
2019-02-22T06:33:46.006Z,103311.00
2019-02-22T06:35:22.270Z,103314.00
2019-02-22T06:37:01.797Z,103324.00
2019-02-22T06:38:34.218Z,103329.00
2019-02-22T06:40:10.340Z,103341.00
2019-02-22T06:41:45.389Z,103330.00
2019-02-22T06:43:20.679Z,103331.00
2019-02-22T06:44:55.818Z,103336.00
2019-02-22T06:46:30.945Z,103339.00
2019-02-22T06:48:06.454Z,103347.00
2019-02-22T06:49:44.362Z,103349.00
2019-02-22T06:51:18.742Z,103358.00
2019-02-22T06:52:53.873Z,103353.00
2019-02-22T06:54:29.003Z,103372.00
2019-02-22T06:56:04.413Z,103365.00
2019-02-22T06:57:41.181Z,103367.00
2019-02-22T06:59:16.298Z,103372.00
2019-02-22T07:00:52.560Z,103384.00
2019-02-22T07:02:27.683Z,103384.00
2019-02-22T07:04:02.794Z,103387.00
2019-02-22T07:05:37.922Z,103397.00
2019-02-22T07:07:13.055Z,103386.00
2019-02-22T07:08:48.168Z,103395.00
2019-02-22T07:10:23.309Z,103392.00
2019-02-22T07:12:16.533Z,103399.00
2019-02-22T07:13:52.642Z,103411.00
2019-02-22T07:15:27.760Z,103417.00
2019-02-22T07:17:02.905Z,103431.00
2019-02-22T07:18:38.200Z,103427.00
2019-02-22T07:20:13.594Z,103432.00
2019-02-22T07:21:52.781Z,103446.00
2019-02-22T07:23:25.683Z,103451.00
2019-02-22T07:25:01.038Z,103455.00
2019-02-22T07:26:36.163Z,103456.00
2019-02-22T07:28:11.293Z,103462.00
2019-02-22T07:29:46.429Z,103469.00
2019-02-22T07:31:22.685Z,103467.00
2019-02-22T07:32:57.982Z,103480.00
2019-02-22T07:34:33.231Z,103481.00
2019-02-22T07:36:08.369Z,103489.00
2019-02-22T07:37:43.500Z,103489.00
2019-02-22T07:39:27.492Z,103496.00
2019-02-22T07:40:55.440Z,103504.00
2019-02-22T07:42:30.564Z,103506.00
2019-02-22T07:44:06.906Z,103515.00
2019-02-22T07:45:42.034Z,103513.00
2019-02-22T07:47:17.324Z,103517.00
2019-02-22T07:48:53.105Z,103513.00
2019-02-22T07:50:28.211Z,103528.00
2019-02-22T07:52:03.341Z,103532.00
2019-02-22T07:53:38.472Z,103533.00
2019-02-22T07:55:13.583Z,103541.00
2019-02-22T07:56:48.717Z,103539.00
2019-02-22T07:58:23.851Z,103548.00
2019-02-22T07:59:58.976Z,103551.00
2019-02-22T08:01:46.609Z,103567.00
2019-02-22T08:03:11.340Z,103562.00
2019-02-22T08:04:47.131Z,103561.00
2019-02-22T08:06:23.654Z,103565.00
2019-02-22T08:07:58.784Z,103572.00
2019-02-22T08:09:33.910Z,103578.00
2019-02-22T08:11:09.114Z,103574.00
2019-02-22T08:12:44.378Z,103574.00
2019-02-22T08:14:19.515Z,103592.00
2019-02-22T08:15:54.641Z,103590.00
2019-02-22T08:17:29.793Z,103602.00
2019-02-22T08:19:04.898Z,103601.00
2019-02-22T08:20:40.030Z,103611.00
2019-02-22T08:22:15.168Z,103614.00
2019-02-22T08:23:50.295Z,103616.00
2019-02-22T08:25:25.426Z,103620.00
2019-02-22T08:27:00.637Z,103631.00
2019-02-22T08:28:36.143Z,103628.00
2019-02-22T08:30:12.810Z,103633.00
2019-02-22T08:31:48.112Z,103631.00
2019-02-22T08:33:23.461Z,103639.00
2019-02-22T08:34:58.605Z,103645.00
2019-02-22T08:36:33.722Z,103641.00
2019-02-22T08:38:08.903Z,103645.00
2019-02-22T08:39:44.040Z,103649.00
2019-02-22T08:41:19.164Z,103665.00
2019-02-22T08:42:54.295Z,103660.00
2019-02-22T08:44:29.434Z,103675.00
2019-02-22T08:46:04.566Z,103680.00
2019-02-22T08:47:40.004Z,103679.00
2019-02-22T08:49:15.153Z,103679.00
2019-02-22T08:50:50.568Z,103688.00
2019-02-22T08:52:25.701Z,103694.00
2019-02-22T08:54:01.118Z,103703.00
2019-02-22T08:55:36.789Z,103709.00
2019-02-22T08:57:11.929Z,103709.00
2019-02-22T08:58:47.145Z,103713.00
2019-02-22T09:00:23.673Z,103720.00
2019-02-22T09:01:58.857Z,103715.00
2019-02-22T09:03:33.990Z,103723.00
2019-02-22T09:05:09.859Z,103731.00
2019-02-22T09:06:44.967Z,103729.00
2019-02-22T09:08:20.076Z,103723.00
2019-02-22T09:09:55.186Z,103726.00
2019-02-22T09:11:30.302Z,103734.00
2019-02-22T09:13:05.408Z,103743.00
2019-02-22T09:14:41.769Z,103745.00
2019-02-22T09:16:16.903Z,103754.00
2019-02-22T09:17:52.013Z,103749.00
2019-02-22T09:19:27.137Z,103749.00
2019-02-22T09:21:02.252Z,103746.00
2019-02-22T09:22:37.382Z,103761.00
2019-02-22T09:24:12.511Z,103768.00
2019-02-22T09:25:47.622Z,103767.00
2019-02-22T09:27:25.164Z,103763.00
2019-02-22T09:29:00.708Z,103766.00
2019-02-22T09:30:35.813Z,103766.00
2019-02-22T09:32:10.952Z,103773.00
2019-02-22T09:33:46.058Z,103773.00
2019-02-22T09:35:21.190Z,103778.00
2019-02-22T09:36:56.297Z,103783.00
2019-02-22T09:38:31.842Z,103786.00
2019-02-22T09:40:14.638Z,103783.00
2019-02-22T09:41:49.063Z,103799.00
2019-02-22T09:43:24.183Z,103805.00
2019-02-22T09:44:59.591Z,103800.00
2019-02-22T09:46:34.689Z,103809.00
2019-02-22T09:48:10.915Z,103805.00
2019-02-22T09:49:46.037Z,103820.00
2019-02-22T09:51:21.144Z,103833.00
2019-02-22T09:52:56.257Z,103827.00
2019-02-22T09:54:31.370Z,103831.00
2019-02-22T09:56:06.472Z,103830.00
2019-02-22T09:57:41.752Z,103833.00
2019-02-22T09:59:16.862Z,103833.00
2019-02-22T10:00:54.405Z,103832.00
2019-02-22T10:02:29.641Z,103842.00
2019-02-22T10:04:04.709Z,103844.00
2019-02-22T10:05:40.124Z,103848.00
2019-02-22T10:07:15.234Z,103850.00
2019-02-22T10:08:50.606Z,103866.00
2019-02-22T10:10:25.766Z,103864.00
2019-02-22T10:12:00.866Z,103866.00
2019-02-22T10:13:35.982Z,103874.00
2019-02-22T10:15:16.122Z,103881.00
2019-02-22T10:16:55.761Z,103880.00
2019-02-22T10:18:31.837Z,103864.00
2019-02-22T10:20:10.867Z,103877.00
2019-02-22T10:21:45.970Z,103872.00
2019-02-22T10:23:21.119Z,103877.00
2019-02-22T10:24:56.238Z,103886.00
2019-02-22T10:26:31.344Z,103880.00
2019-02-22T10:28:16.995Z,103884.00
2019-02-22T10:29:43.272Z,103903.00
2019-02-22T10:31:18.363Z,103903.00
2019-02-22T10:32:53.475Z,103905.00
2019-02-22T10:34:28.701Z,103904.00
2019-02-22T10:36:03.804Z,103922.00
2019-02-22T10:37:38.951Z,103930.00
2019-02-22T10:39:14.067Z,103933.00
2019-02-22T10:40:49.201Z,103931.00
2019-02-22T10:42:24.329Z,103937.00
2019-02-22T10:43:59.440Z,103936.00
2019-02-22T10:45:36.843Z,103938.00
2019-02-22T10:47:12.020Z,103939.00
2019-02-22T10:48:47.133Z,103950.00
2019-02-22T10:50:22.262Z,103949.00
2019-02-22T10:51:57.657Z,103961.00
2019-02-22T10:53:33.076Z,103958.00
2019-02-22T10:55:11.746Z,103968.00
2019-02-22T10:56:46.897Z,103966.00
2019-02-22T10:58:22.004Z,103956.00
2019-02-22T11:00:00.783Z,103961.00
2019-02-22T11:01:35.933Z,103967.00
2019-02-22T11:03:11.040Z,103975.00
2019-02-22T11:04:46.165Z,103977.00
2019-02-22T11:06:21.277Z,103968.00
2019-02-22T11:07:56.397Z,103960.00
2019-02-22T11:09:31.502Z,103958.00
2019-02-22T11:11:06.636Z,103961.00
2019-02-22T11:12:42.035Z,103964.00
2019-02-22T11:14:17.154Z,103964.00
2019-02-22T11:15:52.363Z,103965.00
2019-02-22T11:17:27.463Z,103972.00
2019-02-22T11:19:02.582Z,103975.00
2019-02-22T11:20:37.704Z,103963.00
2019-02-22T11:22:13.943Z,103985.00
2019-02-22T11:23:49.093Z,103986.00
2019-02-22T11:25:24.248Z,103981.00
2019-02-22T11:26:59.336Z,103984.00
2019-02-22T11:28:34.451Z,103983.00
2019-02-22T11:30:13.418Z,103989.00
2019-02-22T11:31:48.525Z,103994.00
2019-02-22T11:33:23.921Z,103995.00
2019-02-22T11:34:59.355Z,103995.00
2019-02-22T11:36:34.458Z,103995.00
2019-02-22T11:38:09.590Z,103995.00
2019-02-22T11:39:44.704Z,103998.00
2019-02-22T11:41:19.829Z,104008.00
2019-02-22T11:42:54.945Z,104005.00
2019-02-22T11:44:39.830Z,104013.00
2019-02-22T11:46:06.889Z,104014.00
2019-02-22T11:47:41.995Z,104015.00
2019-02-22T11:49:18.066Z,104017.00
2019-02-22T11:50:53.198Z,104027.00
2019-02-22T11:52:28.332Z,104030.00
2019-02-22T11:54:03.460Z,104025.00
2019-02-22T11:55:38.594Z,104034.00
2019-02-22T11:57:14.829Z,104035.00
2019-02-22T11:58:50.027Z,104027.00
2019-02-22T12:00:26.521Z,104039.00
2019-02-22T12:02:01.661Z,104044.00
2019-02-22T12:03:36.783Z,104043.00
2019-02-22T12:05:11.913Z,104053.00
2019-02-22T12:06:47.404Z,104047.00
2019-02-22T12:08:23.512Z,104048.00
2019-02-22T12:09:58.625Z,104055.00
2019-02-22T12:11:33.749Z,104059.00
2019-02-22T12:13:09.942Z,104061.00
2019-02-22T12:14:51.579Z,104063.00
2019-02-22T12:16:22.179Z,104065.00
2019-02-22T12:17:57.343Z,104069.00
2019-02-22T12:19:32.524Z,104068.00
2019-02-22T12:21:07.735Z,104076.00
2019-02-22T12:22:42.861Z,104070.00
2019-02-22T12:24:17.991Z,104086.00
2019-02-22T12:25:53.126Z,104092.00
2019-02-22T12:27:28.252Z,104091.00
2019-02-22T12:29:03.368Z,104096.00
2019-02-22T12:30:38.527Z,104097.00
2019-02-22T12:32:13.747Z,104083.00
2019-02-22T12:33:48.860Z,104099.00
2019-02-22T12:35:24.051Z,104095.00
2019-02-22T12:36:59.159Z,104097.00
2019-02-22T12:38:34.297Z,104097.00
2019-02-22T12:40:11.147Z,104091.00
2019-02-22T12:41:47.239Z,104101.00
2019-02-22T12:43:22.370Z,104102.00
2019-02-22T12:45:02.951Z,104109.00
2019-02-22T12:46:37.544Z,104106.00
2019-02-22T12:48:12.654Z,104112.00
2019-02-22T12:49:47.783Z,104117.00
2019-02-22T12:51:22.916Z,104121.00
2019-02-22T12:52:58.050Z,104121.00
2019-02-22T12:54:33.177Z,104125.00
2019-02-22T12:56:08.315Z,104125.00
2019-02-22T12:57:43.442Z,104132.00
2019-02-22T12:59:18.573Z,104130.00
2019-02-22T13:00:53.719Z,104140.00
2019-02-22T13:02:28.851Z,104148.00
2019-02-22T13:04:03.965Z,104149.00
2019-02-22T13:05:39.097Z,104149.00
2019-02-22T13:07:14.226Z,104153.00
2019-02-22T13:08:49.357Z,104154.00
2019-02-22T13:10:24.545Z,104152.00
2019-02-22T13:11:59.679Z,104160.00
2019-02-22T13:13:35.061Z,104158.00
2019-02-22T13:15:14.400Z,104158.00
2019-02-22T13:16:49.019Z,104162.00
2019-02-22T13:18:24.417Z,104167.00
2019-02-22T13:19:59.548Z,104168.00
2019-02-22T13:21:34.672Z,104165.00
2019-02-22T13:23:09.807Z,104171.00
2019-02-22T13:24:46.059Z,104161.00
2019-02-22T13:26:21.449Z,104173.00
2019-02-22T13:27:56.580Z,104173.00
2019-02-22T13:29:31.751Z,104171.00
2019-02-22T13:31:06.901Z,104182.00
2019-02-22T13:32:42.404Z,104172.00
2019-02-22T13:34:17.772Z,104182.00
2019-02-22T13:35:54.598Z,104182.00
2019-02-22T13:37:29.774Z,104177.00
2019-02-22T13:39:05.311Z,104174.00
2019-02-22T13:40:42.088Z,104178.00
2019-02-22T13:42:17.234Z,104188.00
2019-02-22T13:43:52.352Z,104183.00
2019-02-22T13:45:27.474Z,104196.00
2019-02-22T13:47:02.601Z,104199.00
2019-02-22T13:48:37.707Z,104190.00
2019-02-22T13:50:17.538Z,104198.00
2019-02-22T13:51:52.654Z,104200.00
2019-02-22T13:53:27.758Z,104211.00
2019-02-22T13:55:02.891Z,104214.00
2019-02-22T13:56:39.173Z,104213.00
2019-02-22T13:58:14.309Z,104216.00
2019-02-22T13:59:49.410Z,104218.00
2019-02-22T14:01:24.535Z,104228.00
2019-02-22T14:02:59.643Z,104225.00
2019-02-22T14:04:34.771Z,104234.00
2019-02-22T14:06:09.882Z,104229.00
2019-02-22T14:07:57.445Z,104232.00
2019-02-22T14:09:32.559Z,104234.00
2019-02-22T14:11:07.819Z,104236.00
2019-02-22T14:12:42.946Z,104240.00
2019-02-22T14:14:18.063Z,104222.00
2019-02-22T14:15:53.184Z,104232.00
2019-02-22T14:17:28.324Z,104236.00
2019-02-22T14:19:03.702Z,104231.00
2019-02-22T14:20:38.809Z,104232.00
2019-02-22T14:22:13.942Z,104245.00
2019-02-22T14:23:49.071Z,104243.00
2019-02-22T14:25:24.174Z,104242.00
2019-02-22T14:27:00.280Z,104243.00
2019-02-22T14:28:35.381Z,104238.00
2019-02-22T14:30:13.822Z,104246.00
2019-02-22T14:31:48.945Z,104249.00
2019-02-22T14:33:24.039Z,104258.00
2019-02-22T14:34:59.203Z,104257.00
2019-02-22T14:36:34.574Z,104261.00
2019-02-22T14:38:09.930Z,104271.00
2019-02-22T14:39:45.012Z,104264.00
2019-02-22T14:41:23.412Z,104263.00
2019-02-22T14:43:00.213Z,104267.00
2019-02-22T14:44:35.287Z,104266.00
2019-02-22T14:46:10.449Z,104266.00
2019-02-22T14:47:47.472Z,104264.00
2019-02-22T14:49:22.577Z,104266.00
2019-02-22T14:50:57.707Z,104268.00
2019-02-22T14:52:33.138Z,104268.00
2019-02-22T14:54:08.268Z,104271.00
2019-02-22T14:55:43.349Z,104269.00
2019-02-22T14:57:21.680Z,104281.00
2019-02-22T14:58:56.811Z,104270.00
2019-02-22T15:00:31.920Z,104274.00
2019-02-22T15:02:07.049Z,104271.00
2019-02-22T15:03:42.158Z,104276.00
2019-02-22T15:05:17.269Z,104278.00
2019-02-22T15:06:53.503Z,104280.00
2019-02-22T15:08:28.914Z,104275.00
2019-02-22T15:10:05.787Z,104278.00
2019-02-22T15:11:40.916Z,104288.00
2019-02-22T15:13:16.815Z,104276.00
2019-02-22T15:14:53.383Z,104285.00
2019-02-22T15:16:50.712Z,104284.00
2019-02-22T15:18:28.553Z,104294.00
2019-02-22T15:20:03.680Z,104281.00
2019-02-22T15:21:43.124Z,104287.00
2019-02-22T15:23:24.036Z,104291.00
2019-02-22T15:25:03.686Z,104295.00
2019-02-22T15:26:40.671Z,104285.00
2019-02-22T15:28:15.997Z,104299.00
2019-02-22T15:29:51.285Z,104302.00
2019-02-22T15:31:35.823Z,104295.00
2019-02-22T15:33:05.538Z,104303.00
2019-02-22T15:34:40.490Z,104309.00
2019-02-22T15:36:16.197Z,104305.00
2019-02-22T15:37:51.496Z,104311.00
2019-02-22T15:39:27.591Z,104301.00
2019-02-22T15:41:03.929Z,104319.00
2019-02-22T15:42:40.614Z,104316.00
2019-02-22T15:44:15.821Z,104320.00
2019-02-22T15:45:54.012Z,104316.00
2019-02-22T15:47:29.276Z,104335.00
2019-02-22T15:49:04.793Z,104329.00
2019-02-22T15:50:39.895Z,104335.00
2019-02-22T15:52:15.006Z,104338.00
2019-02-22T15:53:53.335Z,104341.00
2019-02-22T15:55:28.453Z,104349.00
2019-02-22T15:57:03.577Z,104344.00
2019-02-22T15:58:38.689Z,104348.00
2019-02-22T16:00:32.449Z,104348.00
2019-02-22T16:02:07.838Z,104353.00
2019-02-22T16:03:50.426Z,104351.00
2019-02-22T16:05:32.903Z,104360.00
2019-02-22T16:07:08.033Z,104356.00
2019-02-22T16:08:43.206Z,104358.00
2019-02-22T16:10:18.272Z,104360.00
2019-02-22T16:11:53.932Z,104365.00
2019-02-22T16:13:29.067Z,104363.00
2019-02-22T16:15:06.221Z,104368.00
2019-02-22T16:16:42.322Z,104366.00
2019-02-22T16:18:17.456Z,104373.00
2019-02-22T16:19:52.553Z,104367.00
2019-02-22T16:21:27.657Z,104367.00
2019-02-22T16:23:03.224Z,104370.00
2019-02-22T16:24:39.301Z,104371.00
2019-02-22T16:26:18.050Z,104376.00
2019-02-22T16:27:54.131Z,104380.00
2019-02-22T16:29:29.256Z,104383.00
2019-02-22T16:31:04.641Z,104378.00
2019-02-22T16:32:39.826Z,104374.00
2019-02-22T16:34:14.943Z,104381.00
2019-02-22T16:35:50.035Z,104388.00
2019-02-22T16:37:25.451Z,104382.00
2019-02-22T16:39:00.571Z,104404.00
2019-02-22T16:40:37.305Z,104390.00
2019-02-22T16:42:12.414Z,104398.00
2019-02-22T16:43:47.531Z,104402.00
2019-02-22T16:45:22.633Z,104398.00
2019-02-22T16:46:57.848Z,104395.00
2019-02-22T16:48:32.945Z,104398.00
2019-02-22T16:50:11.736Z,104404.00
2019-02-22T16:51:46.866Z,104406.00
2019-02-22T16:53:21.976Z,104405.00
2019-02-22T16:54:57.078Z,104400.00
2019-02-22T16:56:32.185Z,104405.00
2019-02-22T16:58:07.293Z,104401.00
2019-02-22T16:59:42.401Z,104404.00
2019-02-22T17:01:17.506Z,104412.00
2019-02-22T17:02:52.661Z,104401.00
2019-02-22T17:04:27.769Z,104410.00
2019-02-22T17:06:03.147Z,104416.00
2019-02-22T17:07:38.251Z,104413.00
2019-02-22T17:09:15.897Z,104411.00
2019-02-22T17:10:51.036Z,104415.00
2019-02-22T17:12:26.107Z,104422.00
2019-02-22T17:14:01.233Z,104412.00
2019-02-22T17:15:36.417Z,104419.00
2019-02-22T17:17:11.678Z,104423.00
2019-02-22T17:18:46.830Z,104425.00
2019-02-22T17:20:21.936Z,104418.00
2019-02-22T17:21:57.053Z,104424.00
2019-02-22T17:23:32.184Z,104421.00
2019-02-22T17:25:11.600Z,104428.00
2019-02-22T17:26:46.738Z,104422.00
2019-02-22T17:28:21.842Z,104422.00
2019-02-22T17:29:56.947Z,104430.00
2019-02-22T17:31:32.050Z,104429.00
2019-02-22T17:33:07.164Z,104437.00
2019-02-22T17:34:42.293Z,104442.00
2019-02-22T17:36:26.361Z,104438.00
2019-02-22T17:37:55.431Z,104436.00
2019-02-22T17:39:30.540Z,104446.00
2019-02-22T17:41:05.935Z,104440.00
2019-02-22T17:42:41.067Z,104443.00
2019-02-22T17:44:16.197Z,104454.00
2019-02-22T17:45:51.323Z,104465.00
2019-02-22T17:47:26.735Z,104461.00
2019-02-22T17:49:02.823Z,104470.00
2019-02-22T17:50:37.947Z,104467.00
2019-02-22T17:52:13.078Z,104471.00
2019-02-22T17:53:48.231Z,104468.00
2019-02-22T17:55:23.364Z,104458.00
2019-02-22T17:56:58.463Z,104460.00
2019-02-22T17:58:33.856Z,104460.00
2019-02-22T18:00:14.772Z,104472.00
2019-02-22T18:01:49.901Z,104472.00
2019-02-22T18:03:25.463Z,104468.00
2019-02-22T18:05:00.861Z,104480.00
2019-02-22T18:06:36.069Z,104474.00
2019-02-22T18:08:11.202Z,104465.00
2019-02-22T18:09:46.310Z,104479.00
2019-02-22T18:11:21.451Z,104480.00